Stowe, VT

1:39 PM EST on February 11, 2016 (GMT -0500)
NEPP | | Change Station
CLOSE
Current Station
Personal Weather Station
Location: Underhill Center, VT
Elevation: 3950 ft
Nearby Weather Stations

Elev 3950 ft 44.53 °N, 72.82 °W | Updated 34 minutes ago

Mostly Cloudy
Mostly Cloudy
1.0 °F
Feels Like -27 °F
N
38.0
Wind Variable Wind from NNW
Gusts 47.0 mph

Today
High -- | Low -- °F
--% Chance of Precip.
Yesterday
High -- | Low -- °F
Precip. -- in
Pressure 29.78 in
Visibility 10.0 miles
Clouds Few 2500 ft
Mostly Cloudy 3700 ft
Windchill -27 °F
Dew Point Not available.
Humidity Not available.
Rainfall in
Snow Depth Not available.
6:57 AM 5:13 PM
Waxing Crescent, 13% visible
METAR KBTV 111754Z 35015KT 10SM FEW025 BKN037 M09/M17 A2976 RMK AO2 SLP085 VIS E-SE 2 VCSH 4/002 T10891167 11067 21089 51009
Pressure 29.78 in
Visibility 10.0 miles
Clouds Few 2500 ft
Mostly Cloudy 3700 ft
Windchill -27 °F
Dew Point Not available.
Humidity Not available.
Rainfall in
Snow Depth Not available.
6:57 AM 5:13 PM
Waxing Crescent, 13% visible
METAR KBTV 111754Z 35015KT 10SM FEW025 BKN037 M09/M17 A2976 RMK AO2 SLP085 VIS E-SE 2 VCSH 4/002 T10891167 11067 21089 51009

10-Day Weather Forecast

Almanac

Astronomy

Feb. 11, 2016 Rise Set
Actual Time
Civil Twilight
Nautical Twilight
Astronomical Twilight
Moon
Length of Visible Light
Length of Day
Tomorrow will be .
, % of the Moon is Illuminated

Today's Extremes

State Highs State Lows

Community

WunderPhotos

Upload Photos

1,892,122 photos uploaded!

WunderBlog® & News

Nearby

Air Quality

  Air Quality AQ Index Pollutant
Not available.

Snow Depth

Station Depth Elevation

Earthquake Activity

City Distance Mag. Time & Date
Minimum magnitude displayed is 2.5.

Coastal Water Temperatures

Place Temperature

Stations

Nearby Weather Stations

Station Location Temp. Windchill Dew Point Humidity Wind Precip. Elev Updated Type
                   

Watches & Warnings

There are currently no watches in effect.